createdAt,value
2023-05-04T00:05:42.682Z,18.09
2023-05-04T00:15:44.220Z,18.07
2023-05-04T00:25:45.667Z,18.03
2023-05-04T00:35:47.266Z,17.99
2023-05-04T00:45:48.674Z,17.98
2023-05-04T00:55:50.207Z,17.94
2023-05-04T01:06:02.791Z,17.90
2023-05-04T01:16:05.307Z,17.86
2023-05-04T01:26:21.846Z,17.83
2023-05-04T01:36:23.243Z,17.85
2023-05-04T01:46:24.707Z,17.83
2023-05-04T01:56:26.158Z,17.83
2023-05-04T02:06:27.716Z,17.82
2023-05-04T02:16:29.213Z,17.81
2023-05-04T02:26:30.818Z,17.82
2023-05-04T02:36:32.416Z,17.77
2023-05-04T02:46:33.826Z,17.76
2023-05-04T02:56:35.224Z,17.76
2023-05-04T03:06:37.166Z,17.69
2023-05-04T03:16:38.632Z,17.69
2023-05-04T03:26:40.084Z,17.66
2023-05-04T03:36:41.651Z,17.64
2023-05-04T03:46:43.033Z,17.57
2023-05-04T03:56:44.426Z,17.57
2023-05-04T04:06:46.573Z,17.58
2023-05-04T04:16:48.170Z,17.53
2023-05-04T04:26:49.595Z,17.71
2023-05-04T04:36:51.743Z,18.01
2023-05-04T04:46:53.225Z,18.26
2023-05-04T04:56:54.889Z,18.36
2023-05-04T05:06:56.583Z,18.39
2023-05-04T05:16:58.695Z,18.45
2023-05-04T05:27:00.544Z,18.50
2023-05-04T05:37:01.975Z,18.77
2023-05-04T05:47:04.170Z,19.26
2023-05-04T05:57:05.662Z,19.65
2023-05-04T06:07:07.057Z,19.72
2023-05-04T06:17:08.506Z,20.12
2023-05-04T06:27:09.911Z,20.41
2023-05-04T06:37:12.405Z,20.47
2023-05-04T06:47:15.764Z,20.83
2023-05-04T06:57:17.170Z,20.98
2023-05-04T07:07:19.058Z,21.09
2023-05-04T07:17:21.854Z,21.49
2023-05-04T07:27:23.565Z,21.85
2023-05-04T07:37:25.163Z,22.01
2023-05-04T07:47:27.060Z,22.24
2023-05-04T07:57:28.613Z,22.66
2023-05-04T08:07:30.296Z,23.03
2023-05-04T08:17:31.871Z,23.39
2023-05-04T08:27:33.287Z,24.01
2023-05-04T08:37:34.714Z,25.31
2023-05-04T08:47:36.337Z,27.65
2023-05-04T08:57:37.906Z,29.62
2023-05-04T09:07:39.502Z,30.54
2023-05-04T09:17:50.877Z,30.87
2023-05-04T09:27:58.545Z,30.19
2023-05-04T09:37:59.991Z,27.32
2023-05-04T09:48:01.553Z,25.23
2023-05-04T09:58:03.078Z,24.02
2023-05-04T10:08:04.615Z,23.26
2023-05-04T10:18:08.915Z,22.90
2023-05-04T10:28:24.014Z,22.72
2023-05-04T10:38:41.368Z,22.54
2023-05-04T10:48:42.783Z,22.49
2023-05-04T10:58:44.218Z,22.36
2023-05-04T11:08:46.678Z,22.30
2023-05-04T11:18:48.422Z,22.19
2023-05-04T11:28:49.801Z,22.13
2023-05-04T11:38:51.345Z,22.05
2023-05-04T11:48:52.752Z,21.96
2023-05-04T11:58:54.153Z,21.90
2023-05-04T12:09:04.639Z,21.88
2023-05-04T12:19:06.776Z,21.86
2023-05-04T12:29:08.320Z,21.81
2023-05-04T12:39:09.728Z,21.76
2023-05-04T12:49:11.266Z,21.71
2023-05-04T12:59:12.668Z,21.67
2023-05-04T13:09:14.207Z,21.62
2023-05-04T13:19:15.996Z,21.59
2023-05-04T13:29:17.373Z,21.57
2023-05-04T13:39:21.814Z,21.55
2023-05-04T13:49:23.181Z,21.52
2023-05-04T13:59:24.705Z,21.48
2023-05-04T14:09:26.235Z,21.47
2023-05-04T14:19:27.615Z,21.43
2023-05-04T14:29:28.990Z,21.42
2023-05-04T14:39:30.376Z,21.42
2023-05-04T14:49:37.132Z,21.44
2023-05-04T14:59:39.338Z,21.46
2023-05-04T15:09:40.847Z,21.52
2023-05-04T15:19:43.572Z,21.54
2023-05-04T15:29:45.336Z,21.49
2023-05-04T15:39:46.731Z,21.46
2023-05-04T15:49:48.134Z,21.45
2023-05-04T15:59:49.945Z,21.43
2023-05-04T16:09:51.699Z,21.41
2023-05-04T16:19:53.272Z,21.39
2023-05-04T16:29:55.450Z,21.36
2023-05-04T16:39:56.863Z,21.34
2023-05-04T16:49:58.422Z,21.32
2023-05-04T17:00:00.125Z,21.33
2023-05-04T17:10:01.755Z,21.27
2023-05-04T17:20:03.714Z,21.26
2023-05-04T17:30:05.911Z,21.23
2023-05-04T17:40:08.190Z,21.21
2023-05-04T17:50:10.058Z,21.18
2023-05-04T18:00:12.272Z,21.16
2023-05-04T18:10:13.815Z,21.11
2023-05-04T18:20:15.847Z,21.08
2023-05-04T18:30:17.237Z,21.04
2023-05-04T18:40:18.697Z,21.00
2023-05-04T18:50:20.311Z,20.92
2023-05-04T19:00:22.866Z,20.86
2023-05-04T19:10:24.410Z,20.82
2023-05-04T19:20:26.368Z,20.76
2023-05-04T19:30:27.769Z,20.70
2023-05-04T19:40:29.174Z,20.65
2023-05-04T19:50:30.991Z,20.58
2023-05-04T20:00:32.435Z,20.52
2023-05-04T20:10:33.835Z,20.46
2023-05-04T20:20:35.225Z,20.41
2023-05-04T20:30:36.711Z,20.38
2023-05-04T20:40:38.128Z,20.35
2023-05-04T20:50:40.244Z,20.34
2023-05-04T21:00:41.634Z,20.29
2023-05-04T21:10:43.010Z,20.27
2023-05-04T21:20:44.542Z,20.24
2023-05-04T21:30:46.083Z,20.21
2023-05-04T21:40:47.462Z,20.19
2023-05-04T21:50:49.060Z,20.18
2023-05-04T22:00:50.567Z,20.18
2023-05-04T22:10:52.332Z,20.18
2023-05-04T22:20:53.783Z,20.15
2023-05-04T22:30:55.214Z,20.13
2023-05-04T22:40:56.614Z,20.13
2023-05-04T22:50:58.342Z,20.15
2023-05-04T23:00:59.857Z,20.14
2023-05-04T23:11:02.494Z,20.14
2023-05-04T23:21:04.079Z,20.13
2023-05-04T23:31:05.571Z,20.13
2023-05-04T23:41:06.943Z,20.13
2023-05-04T23:51:08.862Z,20.08
